createdAt,value
2019-03-26T00:02:05.997Z,14.75
2019-03-26T00:04:41.151Z,15.90
2019-03-26T00:07:11.905Z,15.00
2019-03-26T00:09:42.761Z,10.05
2019-03-26T00:12:13.615Z,19.92
2019-03-26T00:14:44.249Z,16.27
2019-03-26T00:17:19.096Z,14.23
2019-03-26T00:19:51.279Z,12.50
2019-03-26T00:22:22.156Z,16.00
2019-03-26T00:24:56.785Z,15.40
2019-03-26T00:27:27.651Z,13.10
2019-03-26T00:29:58.288Z,11.48
2019-03-26T00:32:29.056Z,14.75
2019-03-26T00:34:59.707Z,18.60
2019-03-26T00:37:30.562Z,13.20
2019-03-26T00:40:01.423Z,13.70
2019-03-26T00:42:32.175Z,11.97
2019-03-26T00:45:02.836Z,19.55
2019-03-26T00:47:33.682Z,18.62
2019-03-26T00:50:05.428Z,18.52
2019-03-26T00:52:36.212Z,15.35
2019-03-26T00:55:21.601Z,14.73
2019-03-26T00:57:41.505Z,16.80
2019-03-26T01:00:12.259Z,21.35
2019-03-26T01:02:42.913Z,26.80
2019-03-26T01:05:13.663Z,18.90
2019-03-26T01:07:44.417Z,24.37
2019-03-26T01:10:18.244Z,19.82
2019-03-26T01:12:48.892Z,29.37
2019-03-26T01:15:19.747Z,21.12
2019-03-26T01:17:50.501Z,17.80
2019-03-26T01:20:21.258Z,17.07
2019-03-26T01:22:51.991Z,16.15
2019-03-26T01:25:22.904Z,17.32
2019-03-26T01:27:53.720Z,16.48
2019-03-26T01:30:24.371Z,15.83
2019-03-26T01:32:55.229Z,15.23
2019-03-26T01:35:27.520Z,18.27
2019-03-26T01:37:59.684Z,16.93
2019-03-26T01:40:30.252Z,17.32
2019-03-26T01:43:00.988Z,18.17
2019-03-26T01:45:31.863Z,16.23
2019-03-26T01:48:02.613Z,20.27
2019-03-26T01:50:33.251Z,15.58
2019-03-26T01:53:04.122Z,12.43
2019-03-26T01:55:34.964Z,14.13
2019-03-26T01:58:06.533Z,14.05
2019-03-26T02:00:37.307Z,15.03
2019-03-26T02:03:07.956Z,14.85
2019-03-26T02:05:38.693Z,14.73
2019-03-26T02:08:09.570Z,12.20
2019-03-26T02:10:40.323Z,15.70
2019-03-26T02:13:10.957Z,15.00
2019-03-26T02:15:41.706Z,18.50
2019-03-26T02:18:12.584Z,14.83
2019-03-26T02:20:43.218Z,16.90
2019-03-26T02:25:43.822Z,13.72
2019-03-26T02:28:14.478Z,12.43
2019-03-26T02:30:45.331Z,13.58
2019-03-26T02:33:16.086Z,19.70
2019-03-26T02:35:46.836Z,15.70
2019-03-26T02:38:17.594Z,16.30
2019-03-26T02:40:48.449Z,13.75
2019-03-26T02:43:19.080Z,14.90
2019-03-26T02:45:49.957Z,13.62
2019-03-26T02:48:20.692Z,12.20
2019-03-26T02:50:51.679Z,16.85
2019-03-26T02:55:51.929Z,15.58
2019-03-26T02:58:22.701Z,12.07
2019-03-26T03:00:53.336Z,11.97
2019-03-26T03:05:53.946Z,15.58
2019-03-26T03:08:24.683Z,18.82
2019-03-26T03:10:55.533Z,12.82
2019-03-26T03:13:26.304Z,17.10
2019-03-26T03:15:57.080Z,12.53
2019-03-26T03:18:27.711Z,13.83
2019-03-26T03:20:58.447Z,13.22
2019-03-26T03:23:29.222Z,13.15
2019-03-26T03:25:59.851Z,19.35
2019-03-26T03:31:00.560Z,13.38
2019-03-26T03:33:31.018Z,18.90
2019-03-26T03:38:31.476Z,16.50
2019-03-26T03:41:02.246Z,15.98
2019-03-26T03:43:33.098Z,14.70
2019-03-26T03:46:04.162Z,16.20
2019-03-26T03:48:34.489Z,19.30
2019-03-26T03:53:34.973Z,16.82
2019-03-26T03:58:35.783Z,20.88
2019-03-26T04:01:06.548Z,19.48
2019-03-26T04:03:37.176Z,19.35
2019-03-26T04:06:09.926Z,10.60
2019-03-26T04:08:40.417Z,20.02
2019-03-26T04:11:11.074Z,19.45
2019-03-26T04:16:11.681Z,16.35
2019-03-26T04:18:42.204Z,20.52
2019-03-26T04:21:13.086Z,16.32
2019-03-26T04:23:43.935Z,16.45
2019-03-26T04:26:14.691Z,21.20
2019-03-26T04:28:45.448Z,17.20
2019-03-26T04:31:16.314Z,16.50
2019-03-26T04:33:46.943Z,17.30
2019-03-26T04:36:25.679Z,18.15
2019-03-26T04:38:49.993Z,18.20
2019-03-26T04:41:20.731Z,18.37
2019-03-26T04:43:51.492Z,19.02
2019-03-26T04:46:22.132Z,19.42
2019-03-26T04:48:53.010Z,24.67
2019-03-26T04:51:23.762Z,15.32
2019-03-26T04:53:54.398Z,19.85
2019-03-26T04:56:25.270Z,14.65
2019-03-26T04:58:56.434Z,17.77
2019-03-26T05:01:26.862Z,16.50
2019-03-26T05:03:57.531Z,15.30
2019-03-26T05:06:38.039Z,19.82
2019-03-26T05:09:00.981Z,16.25
2019-03-26T05:11:31.632Z,19.87
2019-03-26T05:14:02.494Z,16.75
2019-03-26T05:16:33.352Z,19.95
2019-03-26T05:19:03.980Z,16.52
2019-03-26T05:21:34.633Z,25.60
2019-03-26T05:26:35.340Z,17.95
2019-03-26T05:31:35.721Z,19.32
2019-03-26T05:34:06.474Z,21.97
2019-03-26T05:36:50.401Z,30.80
2019-03-26T05:39:09.317Z,33.55
2019-03-26T05:41:40.048Z,22.58
2019-03-26T05:44:10.924Z,19.73
2019-03-26T05:46:41.557Z,17.25
2019-03-26T05:51:42.044Z,23.50
2019-03-26T05:54:12.815Z,22.07
2019-03-26T05:56:43.465Z,24.52
2019-03-26T05:59:15.344Z,26.12
2019-03-26T06:01:46.301Z,25.50
2019-03-26T06:04:17.054Z,25.32
2019-03-26T06:06:47.712Z,27.93
2019-03-26T06:09:18.769Z,26.93
2019-03-26T06:11:49.522Z,19.48
2019-03-26T06:14:20.157Z,23.85
2019-03-26T06:19:20.745Z,21.30
2019-03-26T06:24:21.336Z,27.50
2019-03-26T06:26:51.982Z,24.57
2019-03-26T06:29:22.734Z,30.02
2019-03-26T06:31:53.613Z,35.17
2019-03-26T06:34:24.246Z,24.30
2019-03-26T06:36:55.014Z,24.00
2019-03-26T06:39:25.678Z,27.80
2019-03-26T06:41:56.407Z,21.57
2019-03-26T06:44:27.175Z,22.48
2019-03-26T06:46:57.931Z,24.43
2019-03-26T06:49:28.584Z,29.27
2019-03-26T06:51:59.214Z,25.00
2019-03-26T06:54:29.972Z,31.00
2019-03-26T06:57:00.740Z,34.98
2019-03-26T06:59:32.502Z,24.37
2019-03-26T07:02:03.169Z,31.73
2019-03-26T07:04:34.028Z,27.15
2019-03-26T07:07:04.864Z,32.20
2019-03-26T07:09:35.518Z,26.15
2019-03-26T07:14:37.348Z,25.30
2019-03-26T07:17:08.100Z,31.77
2019-03-26T07:19:38.755Z,28.12
2019-03-26T07:22:11.144Z,29.82
2019-03-26T07:24:41.927Z,31.25
2019-03-26T07:27:12.652Z,22.37
2019-03-26T07:29:43.304Z,25.50
2019-03-26T07:32:15.494Z,29.15
2019-03-26T07:34:46.157Z,32.10
2019-03-26T07:37:17.304Z,30.15
2019-03-26T07:39:48.166Z,32.40
2019-03-26T07:42:19.018Z,36.33
2019-03-26T07:44:49.649Z,34.20
2019-03-26T07:49:50.239Z,20.32
2019-03-26T07:52:20.916Z,27.87
2019-03-26T07:54:52.462Z,27.95
2019-03-26T07:57:24.006Z,37.00
2019-03-26T07:59:55.415Z,29.45
2019-03-26T08:02:26.289Z,25.57
2019-03-26T08:04:57.029Z,27.55
2019-03-26T08:07:27.805Z,28.17
2019-03-26T08:09:58.430Z,32.88
2019-03-26T08:12:29.168Z,34.05
2019-03-26T08:15:00.420Z,33.05
2019-03-26T08:17:31.206Z,35.23
2019-03-26T08:20:01.944Z,34.40
2019-03-26T08:22:32.596Z,32.23
2019-03-26T08:25:04.184Z,30.52
2019-03-26T08:27:34.628Z,29.85
2019-03-26T08:30:07.126Z,32.20
2019-03-26T08:32:37.573Z,35.00
2019-03-26T08:35:08.325Z,29.87
2019-03-26T08:37:38.966Z,28.83
2019-03-26T08:42:39.562Z,27.95
2019-03-26T08:45:10.216Z,35.38
2019-03-26T08:47:41.071Z,37.50
2019-03-26T08:50:12.029Z,38.25
2019-03-26T08:52:42.475Z,44.60
2019-03-26T08:55:13.316Z,46.92
2019-03-26T08:57:43.885Z,52.17
2019-03-26T09:00:14.744Z,64.07
2019-03-26T09:02:45.492Z,60.05
2019-03-26T09:05:16.141Z,64.60
2019-03-26T09:07:46.879Z,66.65
2019-03-26T09:10:17.530Z,67.12
2019-03-26T09:12:48.302Z,63.25
2019-03-26T09:15:18.937Z,36.00
2019-03-26T09:17:49.605Z,30.15
2019-03-26T09:20:20.463Z,31.70
2019-03-26T09:22:51.095Z,37.98
2019-03-26T09:25:21.744Z,41.13
2019-03-26T09:32:52.986Z,45.92
2019-03-26T09:35:23.756Z,56.88
2019-03-26T09:37:54.645Z,54.90
2019-03-26T09:40:25.371Z,62.27
2019-03-26T09:42:56.002Z,59.45
2019-03-26T09:45:26.755Z,57.83
2019-03-26T09:47:57.526Z,62.55
2019-03-26T09:50:33.573Z,68.33
2019-03-26T09:53:04.439Z,64.22
2019-03-26T09:58:04.841Z,65.03
2019-03-26T10:00:36.152Z,67.87
2019-03-26T10:03:07.171Z,70.28
2019-03-26T10:05:37.797Z,65.03
2019-03-26T10:10:38.386Z,51.33
2019-03-26T10:13:09.157Z,53.40
2019-03-26T10:15:39.893Z,55.45
2019-03-26T10:18:10.770Z,48.65
2019-03-26T10:20:41.521Z,54.70
2019-03-26T10:23:12.172Z,51.13
2019-03-26T10:25:42.915Z,50.08
2019-03-26T10:28:13.559Z,59.27
2019-03-26T10:30:44.330Z,67.87
2019-03-26T10:33:14.993Z,68.67
2019-03-26T10:35:45.721Z,86.70
2019-03-26T10:38:16.371Z,79.42
2019-03-26T10:40:47.027Z,100.05
2019-03-26T10:43:17.693Z,85.60
2019-03-26T10:45:48.427Z,94.52
2019-03-26T10:48:19.184Z,99.67
2019-03-26T10:50:49.837Z,109.17
2019-03-26T10:53:20.486Z,102.05
2019-03-26T10:58:21.074Z,99.85
2019-03-26T11:00:52.867Z,106.97
2019-03-26T11:03:23.316Z,103.90
2019-03-26T11:05:53.970Z,101.97
2019-03-26T11:08:24.822Z,92.25
2019-03-26T11:10:55.456Z,71.05
2019-03-26T11:13:26.108Z,59.08
2019-03-26T11:18:26.591Z,61.08
2019-03-26T11:21:02.793Z,61.58
2019-03-26T11:23:29.445Z,66.42
2019-03-26T11:26:00.303Z,71.67
2019-03-26T11:28:31.059Z,84.30
2019-03-26T11:31:01.693Z,69.30
2019-03-26T11:33:32.358Z,71.62
2019-03-26T11:36:03.096Z,92.12
2019-03-26T11:38:33.969Z,84.42
2019-03-26T11:41:04.723Z,85.97
2019-03-26T11:43:35.254Z,86.72
2019-03-26T11:46:06.133Z,83.85
2019-03-26T11:48:36.864Z,89.03
2019-03-26T11:51:07.643Z,83.37
2019-03-26T11:53:38.279Z,78.90
2019-03-26T11:56:09.150Z,76.22
2019-03-26T11:58:39.899Z,75.95
2019-03-26T12:01:10.940Z,77.53
2019-03-26T12:03:41.816Z,78.30
2019-03-26T12:06:12.570Z,79.97
2019-03-26T12:08:43.326Z,75.37
2019-03-26T12:11:14.189Z,75.47
2019-03-26T12:13:45.036Z,72.08
2019-03-26T12:16:15.790Z,73.83
2019-03-26T12:18:46.440Z,71.85
2019-03-26T12:21:17.279Z,71.90
2019-03-26T12:23:48.034Z,74.37
2019-03-26T12:26:18.685Z,68.97
2019-03-26T12:28:49.337Z,69.47
2019-03-26T12:31:20.218Z,78.42
2019-03-26T12:33:50.965Z,83.07
2019-03-26T12:36:21.720Z,93.60
2019-03-26T12:38:52.351Z,91.37
2019-03-26T12:41:23.107Z,73.70
2019-03-26T12:43:53.879Z,66.28
2019-03-26T12:46:24.634Z,86.53
2019-03-26T12:48:55.284Z,105.43
2019-03-26T12:51:26.017Z,99.58
2019-03-26T12:53:56.773Z,84.13
2019-03-26T12:56:27.544Z,90.75
2019-03-26T12:58:58.197Z,93.03
2019-03-26T13:01:29.363Z,69.85
2019-03-26T13:04:11.900Z,74.62
2019-03-26T13:06:32.093Z,77.30
2019-03-26T13:09:02.949Z,76.57
2019-03-26T13:11:33.382Z,78.25
2019-03-26T13:14:04.250Z,78.07
2019-03-26T13:16:35.005Z,81.95
2019-03-26T13:19:05.659Z,73.70
2019-03-26T13:21:37.595Z,80.32
2019-03-26T13:24:11.297Z,79.17
2019-03-26T13:26:40.476Z,75.57
2019-03-26T13:29:11.230Z,71.07
2019-03-26T13:31:41.982Z,68.25
2019-03-26T13:34:12.719Z,69.47
2019-03-26T13:36:43.592Z,65.30
2019-03-26T13:39:14.226Z,70.37
2019-03-26T13:41:44.882Z,65.12
2019-03-26T13:44:15.652Z,63.63
2019-03-26T13:46:46.387Z,70.60
2019-03-26T13:51:47.985Z,64.82
2019-03-26T13:54:18.647Z,60.88
2019-03-26T13:56:49.522Z,58.87
2019-03-26T13:59:20.377Z,47.85
2019-03-26T14:01:52.262Z,56.18
2019-03-26T14:04:23.010Z,52.67
2019-03-26T14:06:53.545Z,46.42
2019-03-26T14:09:24.306Z,50.17
2019-03-26T14:11:57.582Z,46.15
2019-03-26T14:14:27.163Z,51.40
2019-03-26T14:16:57.792Z,44.90
2019-03-26T14:19:28.659Z,42.80
2019-03-26T14:21:59.414Z,43.58
2019-03-26T14:24:30.066Z,42.48
2019-03-26T14:27:00.921Z,42.13
2019-03-26T14:29:31.676Z,40.33
2019-03-26T14:32:02.431Z,42.83
2019-03-26T14:34:33.081Z,37.70
2019-03-26T14:37:03.815Z,38.90
2019-03-26T14:39:34.589Z,53.83
2019-03-26T14:42:05.342Z,51.92
2019-03-26T14:44:35.992Z,42.43
2019-03-26T14:47:06.730Z,56.55
2019-03-26T14:49:37.382Z,58.87
2019-03-26T14:52:08.032Z,41.80
2019-03-26T14:54:38.703Z,37.93
2019-03-26T14:57:09.558Z,37.55
2019-03-26T14:59:40.421Z,29.75
2019-03-26T15:02:11.168Z,23.98
2019-03-26T15:04:41.701Z,29.63
2019-03-26T15:07:12.574Z,28.07
2019-03-26T15:09:43.325Z,27.48
2019-03-26T15:12:13.961Z,27.22
2019-03-26T15:14:44.616Z,27.60
2019-03-26T15:17:15.485Z,40.05
2019-03-26T15:19:46.240Z,30.23
2019-03-26T15:22:16.998Z,28.05
2019-03-26T15:24:47.527Z,33.18
2019-03-26T15:27:18.399Z,45.65
2019-03-26T15:29:49.255Z,31.20
2019-03-26T15:32:19.991Z,25.40
2019-03-26T15:34:50.868Z,29.32
2019-03-26T15:37:22.625Z,27.67
2019-03-26T15:39:55.548Z,30.15
2019-03-26T15:42:26.199Z,28.20
2019-03-26T15:44:57.052Z,33.42
2019-03-26T15:47:27.804Z,36.03
2019-03-26T15:49:58.560Z,27.87
2019-03-26T15:52:29.417Z,26.85
2019-03-26T15:55:00.459Z,32.33
2019-03-26T15:57:31.536Z,24.85
2019-03-26T16:00:02.120Z,30.92
2019-03-26T16:02:40.293Z,34.92
2019-03-26T16:05:10.939Z,29.37
2019-03-26T16:07:41.712Z,43.92
2019-03-26T16:10:12.362Z,33.65
2019-03-26T16:12:43.205Z,34.33
2019-03-26T16:15:13.974Z,31.70
2019-03-26T16:17:44.725Z,35.10
2019-03-26T16:20:15.585Z,39.60
2019-03-26T16:22:46.439Z,35.45
2019-03-26T16:25:17.196Z,30.82
2019-03-26T16:27:47.826Z,33.67
2019-03-26T16:32:48.105Z,38.40
2019-03-26T16:37:48.592Z,34.13
2019-03-26T16:40:19.349Z,42.98
2019-03-26T16:42:50.120Z,37.88
2019-03-26T16:45:20.976Z,41.88
2019-03-26T16:47:51.610Z,42.53
2019-03-26T16:52:52.109Z,44.57
2019-03-26T16:55:22.868Z,47.23
2019-03-26T16:57:53.514Z,45.23
2019-03-26T17:00:32.432Z,42.33
2019-03-26T17:03:04.026Z,38.63
2019-03-26T17:05:34.657Z,41.08
2019-03-26T17:08:05.431Z,38.25
2019-03-26T17:10:36.267Z,44.63
2019-03-26T17:13:07.157Z,42.23
2019-03-26T17:15:37.896Z,41.08
2019-03-26T17:18:09.162Z,40.73
2019-03-26T17:20:40.024Z,35.33
2019-03-26T17:23:10.753Z,45.90
2019-03-26T17:25:41.422Z,48.78
2019-03-26T17:28:12.260Z,50.85
2019-03-26T17:30:43.031Z,43.75
2019-03-26T17:33:13.786Z,44.45
2019-03-26T17:35:44.436Z,43.95
2019-03-26T17:38:15.295Z,41.45
2019-03-26T17:40:46.148Z,45.40
2019-03-26T17:43:16.906Z,44.73
2019-03-26T17:45:50.113Z,47.90
2019-03-26T17:48:20.865Z,45.98
2019-03-26T17:50:51.726Z,43.42
2019-03-26T17:53:22.479Z,48.65
2019-03-26T17:55:53.230Z,43.10
2019-03-26T17:58:23.866Z,39.45
2019-03-26T18:00:56.391Z,39.90
2019-03-26T18:03:28.447Z,40.55
2019-03-26T18:06:04.739Z,47.50
2019-03-26T18:08:35.296Z,47.13
2019-03-26T18:11:06.244Z,49.58
2019-03-26T18:13:39.247Z,45.63
2019-03-26T18:16:09.797Z,43.02
2019-03-26T18:18:41.188Z,45.80
2019-03-26T18:21:11.804Z,52.15
2019-03-26T18:23:43.044Z,46.02
2019-03-26T18:26:13.510Z,45.05
2019-03-26T18:28:44.181Z,49.60
2019-03-26T18:31:24.143Z,48.48
2019-03-26T18:34:01.418Z,44.67
2019-03-26T18:36:37.794Z,46.00
2019-03-26T18:39:09.073Z,45.80
2019-03-26T18:41:39.823Z,41.33
2019-03-26T18:44:10.695Z,52.10
2019-03-26T18:46:41.449Z,43.83
2019-03-26T18:49:12.311Z,45.52
2019-03-26T18:51:43.372Z,50.63
2019-03-26T18:54:14.225Z,42.65
2019-03-26T18:56:44.872Z,47.48
2019-03-26T18:59:15.712Z,47.65
2019-03-26T19:01:46.482Z,41.98
2019-03-26T19:04:18.368Z,41.88
2019-03-26T19:06:49.125Z,43.40
2019-03-26T19:09:19.749Z,46.08
2019-03-26T19:11:58.310Z,41.55
2019-03-26T19:14:29.472Z,35.85
2019-03-26T19:16:59.887Z,34.73
2019-03-26T19:19:30.663Z,33.45
2019-03-26T19:22:01.413Z,36.10
2019-03-26T19:24:32.372Z,35.33
2019-03-26T19:27:04.968Z,35.75
